sensor_id;sensor_type;location;lat;lon;timestamp;P1;durP1;ratioP1;P2;durP2;ratioP2
6344;SDS011;3205;42.666;23.264;2022-09-02T00:00:35;20.48;;;14.60;;
6344;SDS011;3205;42.666;23.264;2022-09-02T00:03:01;22.08;;;13.75;;
6344;SDS011;3205;42.666;23.264;2022-09-02T00:05:28;18.98;;;14.20;;
6344;SDS011;3205;42.666;23.264;2022-09-02T00:07:56;19.45;;;14.18;;
6344;SDS011;3205;42.666;23.264;2022-09-02T00:10:22;18.38;;;13.98;;
6344;SDS011;3205;42.666;23.264;2022-09-02T00:12:49;20.55;;;13.23;;
6344;SDS011;3205;42.666;23.264;2022-09-02T00:15:15;17.20;;;13.38;;
6344;SDS011;3205;42.666;23.264;2022-09-02T00:17:44;21.77;;;13.35;;
6344;SDS011;3205;42.666;23.264;2022-09-02T00:20:12;17.75;;;14.20;;
6344;SDS011;3205;42.666;23.264;2022-09-02T00:22:38;19.30;;;14.35;;
6344;SDS011;3205;42.666;23.264;2022-09-02T00:25:05;17.02;;;13.48;;
6344;SDS011;3205;42.666;23.264;2022-09-02T00:27:32;18.10;;;14.57;;
6344;SDS011;3205;42.666;23.264;2022-09-02T00:29:59;19.40;;;14.60;;
6344;SDS011;3205;42.666;23.264;2022-09-02T00:32:25;17.88;;;12.85;;
6344;SDS011;3205;42.666;23.264;2022-09-02T00:34:53;16.55;;;13.32;;
6344;SDS011;3205;42.666;23.264;2022-09-02T00:37:22;22.88;;;14.68;;
6344;SDS011;3205;42.666;23.264;2022-09-02T00:39:50;19.90;;;14.25;;
6344;SDS011;3205;42.666;23.264;2022-09-02T00:42:17;17.90;;;14.43;;
6344;SDS011;3205;42.666;23.264;2022-09-02T00:44:45;18.50;;;14.13;;
6344;SDS011;3205;42.666;23.264;2022-09-02T00:47:12;20.17;;;15.13;;
6344;SDS011;3205;42.666;23.264;2022-09-02T00:49:40;21.98;;;14.75;;
6344;SDS011;3205;42.666;23.264;2022-09-02T00:52:11;18.15;;;14.40;;
6344;SDS011;3205;42.666;23.264;2022-09-02T00:54:40;16.60;;;14.65;;
6344;SDS011;3205;42.666;23.264;2022-09-02T00:57:07;18.50;;;15.02;;
6344;SDS011;3205;42.666;23.264;2022-09-02T00:59:38;19.70;;;13.95;;
6344;SDS011;3205;42.666;23.264;2022-09-02T01:02:06;18.13;;;13.25;;
6344;SDS011;3205;42.666;23.264;2022-09-02T01:04:34;18.92;;;14.63;;
6344;SDS011;3205;42.666;23.264;2022-09-02T01:07:00;22.73;;;14.90;;
6344;SDS011;3205;42.666;23.264;2022-09-02T01:09:28;19.63;;;14.32;;
6344;SDS011;3205;42.666;23.264;2022-09-02T01:11:57;22.25;;;13.57;;
6344;SDS011;3205;42.666;23.264;2022-09-02T01:14:27;17.67;;;13.80;;
6344;SDS011;3205;42.666;23.264;2022-09-02T01:16:55;18.70;;;13.40;;
6344;SDS011;3205;42.666;23.264;2022-09-02T01:19:24;17.55;;;12.60;;
6344;SDS011;3205;42.666;23.264;2022-09-02T01:21:54;15.50;;;12.57;;
6344;SDS011;3205;42.666;23.264;2022-09-02T01:24:23;17.90;;;13.07;;
6344;SDS011;3205;42.666;23.264;2022-09-02T01:26:51;17.50;;;12.38;;
6344;SDS011;3205;42.666;23.264;2022-09-02T01:29:18;17.40;;;10.40;;
6344;SDS011;3205;42.666;23.264;2022-09-02T01:31:44;15.38;;;11.23;;
6344;SDS011;3205;42.666;23.264;2022-09-02T01:34:11;15.88;;;12.13;;
6344;SDS011;3205;42.666;23.264;2022-09-02T01:36:38;22.60;;;12.15;;
6344;SDS011;3205;42.666;23.264;2022-09-02T01:39:07;14.93;;;10.55;;
6344;SDS011;3205;42.666;23.264;2022-09-02T01:41:34;12.88;;;9.60;;
6344;SDS011;3205;42.666;23.264;2022-09-02T01:44:01;11.88;;;8.88;;
6344;SDS011;3205;42.666;23.264;2022-09-02T01:46:27;11.52;;;8.90;;
6344;SDS011;3205;42.666;23.264;2022-09-02T01:48:54;8.80;;;7.93;;
6344;SDS011;3205;42.666;23.264;2022-09-02T01:51:20;11.35;;;8.45;;
6344;SDS011;3205;42.666;23.264;2022-09-02T01:53:48;9.48;;;8.40;;
6344;SDS011;3205;42.666;23.264;2022-09-02T01:56:18;9.73;;;8.52;;
6344;SDS011;3205;42.666;23.264;2022-09-02T01:58:45;10.43;;;8.50;;
6344;SDS011;3205;42.666;23.264;2022-09-02T02:01:13;11.40;;;8.55;;
6344;SDS011;3205;42.666;23.264;2022-09-02T02:03:39;9.32;;;7.75;;
6344;SDS011;3205;42.666;23.264;2022-09-02T02:06:07;9.98;;;7.35;;
6344;SDS011;3205;42.666;23.264;2022-09-02T02:08:33;12.57;;;8.30;;
6344;SDS011;3205;42.666;23.264;2022-09-02T02:11:00;10.68;;;7.95;;
6344;SDS011;3205;42.666;23.264;2022-09-02T02:13:28;9.25;;;7.90;;
6344;SDS011;3205;42.666;23.264;2022-09-02T02:15:56;10.05;;;9.07;;
6344;SDS011;3205;42.666;23.264;2022-09-02T02:18:23;9.88;;;8.57;;
6344;SDS011;3205;42.666;23.264;2022-09-02T02:20:50;8.48;;;7.65;;
6344;SDS011;3205;42.666;23.264;2022-09-02T02:23:18;8.77;;;7.88;;
6344;SDS011;3205;42.666;23.264;2022-09-02T02:25:46;9.55;;;7.93;;
6344;SDS011;3205;42.666;23.264;2022-09-02T02:28:14;9.57;;;8.57;;
6344;SDS011;3205;42.666;23.264;2022-09-02T02:30:42;11.45;;;8.15;;
6344;SDS011;3205;42.666;23.264;2022-09-02T02:33:08;15.85;;;8.75;;
6344;SDS011;3205;42.666;23.264;2022-09-02T02:35:36;10.18;;;8.68;;
6344;SDS011;3205;42.666;23.264;2022-09-02T02:38:03;12.10;;;8.77;;
6344;SDS011;3205;42.666;23.264;2022-09-02T02:40:30;8.90;;;8.00;;
6344;SDS011;3205;42.666;23.264;2022-09-02T02:42:57;10.23;;;9.23;;
6344;SDS011;3205;42.666;23.264;2022-09-02T02:45:23;12.50;;;10.07;;
6344;SDS011;3205;42.666;23.264;2022-09-02T02:47:53;10.43;;;9.32;;
6344;SDS011;3205;42.666;23.264;2022-09-02T02:50:21;10.18;;;8.77;;
6344;SDS011;3205;42.666;23.264;2022-09-02T02:52:48;11.07;;;9.27;;
6344;SDS011;3205;42.666;23.264;2022-09-02T02:55:14;12.10;;;9.75;;
6344;SDS011;3205;42.666;23.264;2022-09-02T02:57:43;11.27;;;10.23;;
6344;SDS011;3205;42.666;23.264;2022-09-02T03:00:12;10.50;;;9.48;;
6344;SDS011;3205;42.666;23.264;2022-09-02T03:02:41;10.95;;;9.60;;
6344;SDS011;3205;42.666;23.264;2022-09-02T03:05:10;12.45;;;10.30;;
6344;SDS011;3205;42.666;23.264;2022-09-02T03:07:37;10.63;;;9.60;;
6344;SDS011;3205;42.666;23.264;2022-09-02T03:10:05;11.65;;;10.30;;
6344;SDS011;3205;42.666;23.264;2022-09-02T03:12:32;12.07;;;10.80;;
6344;SDS011;3205;42.666;23.264;2022-09-02T03:14:59;15.15;;;11.65;;
6344;SDS011;3205;42.666;23.264;2022-09-02T03:17:26;17.10;;;11.68;;
6344;SDS011;3205;42.666;23.264;2022-09-02T03:19:54;12.80;;;10.90;;
6344;SDS011;3205;42.666;23.264;2022-09-02T03:22:25;13.18;;;11.80;;
6344;SDS011;3205;42.666;23.264;2022-09-02T03:24:52;14.32;;;10.45;;
6344;SDS011;3205;42.666;23.264;2022-09-02T03:27:19;12.18;;;10.88;;
6344;SDS011;3205;42.666;23.264;2022-09-02T03:29:45;12.45;;;11.15;;
6344;SDS011;3205;42.666;23.264;2022-09-02T03:32:12;16.33;;;10.98;;
6344;SDS011;3205;42.666;23.264;2022-09-02T03:34:39;12.15;;;10.85;;
6344;SDS011;3205;42.666;23.264;2022-09-02T03:37:08;13.60;;;10.75;;
6344;SDS011;3205;42.666;23.264;2022-09-02T03:39:36;14.65;;;11.82;;
6344;SDS011;3205;42.666;23.264;2022-09-02T03:42:05;16.85;;;10.32;;
6344;SDS011;3205;42.666;23.264;2022-09-02T03:44:31;14.65;;;11.00;;
6344;SDS011;3205;42.666;23.264;2022-09-02T03:46:59;13.10;;;10.52;;
6344;SDS011;3205;42.666;23.264;2022-09-02T03:49:26;11.93;;;10.73;;
6344;SDS011;3205;42.666;23.264;2022-09-02T03:51:55;16.42;;;11.80;;
6344;SDS011;3205;42.666;23.264;2022-09-02T03:54:21;16.65;;;10.68;;
6344;SDS011;3205;42.666;23.264;2022-09-02T03:56:50;12.23;;;10.85;;
6344;SDS011;3205;42.666;23.264;2022-09-02T03:59:17;11.05;;;9.90;;
6344;SDS011;3205;42.666;23.264;2022-09-02T04:01:43;13.02;;;9.82;;
6344;SDS011;3205;42.666;23.264;2022-09-02T04:04:11;12.35;;;11.05;;
6344;SDS011;3205;42.666;23.264;2022-09-02T04:06:38;16.38;;;10.43;;
6344;SDS011;3205;42.666;23.264;2022-09-02T04:09:05;14.65;;;10.88;;
6344;SDS011;3205;42.666;23.264;2022-09-02T04:11:31;14.20;;;10.35;;
6344;SDS011;3205;42.666;23.264;2022-09-02T04:13:59;16.67;;;10.02;;
6344;SDS011;3205;42.666;23.264;2022-09-02T04:16:26;12.88;;;9.25;;
6344;SDS011;3205;42.666;23.264;2022-09-02T04:18:53;11.32;;;10.18;;
6344;SDS011;3205;42.666;23.264;2022-09-02T04:21:21;11.10;;;9.15;;
6344;SDS011;3205;42.666;23.264;2022-09-02T04:23:49;11.90;;;10.65;;
6344;SDS011;3205;42.666;23.264;2022-09-02T04:26:17;11.68;;;9.85;;
6344;SDS011;3205;42.666;23.264;2022-09-02T04:28:45;13.27;;;10.18;;
6344;SDS011;3205;42.666;23.264;2022-09-02T04:31:14;11.32;;;10.30;;
6344;SDS011;3205;42.666;23.264;2022-09-02T04:33:41;14.57;;;10.70;;
6344;SDS011;3205;42.666;23.264;2022-09-02T04:36:10;14.35;;;10.40;;
6344;SDS011;3205;42.666;23.264;2022-09-02T04:38:37;11.80;;;10.23;;
6344;SDS011;3205;42.666;23.264;2022-09-02T04:41:05;15.48;;;11.15;;
6344;SDS011;3205;42.666;23.264;2022-09-02T04:43:31;12.38;;;10.68;;
6344;SDS011;3205;42.666;23.264;2022-09-02T04:45:58;14.02;;;11.48;;
6344;SDS011;3205;42.666;23.264;2022-09-02T04:48:27;16.77;;;11.73;;
6344;SDS011;3205;42.666;23.264;2022-09-02T04:50:53;14.70;;;12.38;;
6344;SDS011;3205;42.666;23.264;2022-09-02T04:53:20;16.58;;;12.30;;
6344;SDS011;3205;42.666;23.264;2022-09-02T04:55:46;13.20;;;11.55;;
6344;SDS011;3205;42.666;23.264;2022-09-02T04:58:14;17.02;;;13.35;;
6344;SDS011;3205;42.666;23.264;2022-09-02T05:00:40;20.83;;;14.07;;
6344;SDS011;3205;42.666;23.264;2022-09-02T05:03:07;17.20;;;14.32;;
6344;SDS011;3205;42.666;23.264;2022-09-02T05:05:37;16.95;;;13.95;;
6344;SDS011;3205;42.666;23.264;2022-09-02T05:08:04;17.88;;;13.65;;
6344;SDS011;3205;42.666;23.264;2022-09-02T05:10:32;21.08;;;14.68;;
6344;SDS011;3205;42.666;23.264;2022-09-02T05:12:58;18.73;;;14.45;;
6344;SDS011;3205;42.666;23.264;2022-09-02T05:15:26;15.07;;;13.25;;
6344;SDS011;3205;42.666;23.264;2022-09-02T05:17:52;15.80;;;14.05;;
6344;SDS011;3205;42.666;23.264;2022-09-02T05:20:19;15.50;;;13.88;;
6344;SDS011;3205;42.666;23.264;2022-09-02T05:22:48;15.90;;;13.68;;
6344;SDS011;3205;42.666;23.264;2022-09-02T05:25:17;19.55;;;13.77;;
6344;SDS011;3205;42.666;23.264;2022-09-02T05:27:43;16.50;;;13.82;;
6344;SDS011;3205;42.666;23.264;2022-09-02T05:30:10;16.23;;;11.93;;
6344;SDS011;3205;42.666;23.264;2022-09-02T05:32:38;15.95;;;11.20;;
6344;SDS011;3205;42.666;23.264;2022-09-02T05:35:05;13.13;;;10.70;;
6344;SDS011;3205;42.666;23.264;2022-09-02T05:37:33;14.20;;;12.00;;
6344;SDS011;3205;42.666;23.264;2022-09-02T05:40:02;12.13;;;10.93;;
6344;SDS011;3205;42.666;23.264;2022-09-02T05:42:29;13.88;;;11.65;;
6344;SDS011;3205;42.666;23.264;2022-09-02T05:44:57;12.43;;;11.25;;
6344;SDS011;3205;42.666;23.264;2022-09-02T05:47:24;15.13;;;10.88;;
6344;SDS011;3205;42.666;23.264;2022-09-02T05:49:50;13.48;;;10.77;;
6344;SDS011;3205;42.666;23.264;2022-09-02T05:52:17;12.10;;;9.90;;
6344;SDS011;3205;42.666;23.264;2022-09-02T05:54:43;15.23;;;10.55;;
6344;SDS011;3205;42.666;23.264;2022-09-02T05:57:12;16.30;;;10.70;;
6344;SDS011;3205;42.666;23.264;2022-09-02T05:59:39;14.38;;;9.75;;
6344;SDS011;3205;42.666;23.264;2022-09-02T06:02:07;14.38;;;9.55;;
6344;SDS011;3205;42.666;23.264;2022-09-02T06:04:36;14.00;;;9.60;;
6344;SDS011;3205;42.666;23.264;2022-09-02T06:07:04;13.18;;;9.45;;
6344;SDS011;3205;42.666;23.264;2022-09-02T06:09:31;11.18;;;9.10;;
6344;SDS011;3205;42.666;23.264;2022-09-02T06:11:59;14.13;;;9.48;;
6344;SDS011;3205;42.666;23.264;2022-09-02T06:14:28;12.60;;;9.65;;
6344;SDS011;3205;42.666;23.264;2022-09-02T06:16:56;15.10;;;10.32;;
6344;SDS011;3205;42.666;23.264;2022-09-02T06:19:23;16.65;;;8.70;;
6344;SDS011;3205;42.666;23.264;2022-09-02T06:21:50;11.00;;;7.43;;
6344;SDS011;3205;42.666;23.264;2022-09-02T06:24:17;10.82;;;7.60;;
6344;SDS011;3205;42.666;23.264;2022-09-02T06:26:44;8.60;;;7.28;;
6344;SDS011;3205;42.666;23.264;2022-09-02T06:29:11;11.80;;;8.40;;
6344;SDS011;3205;42.666;23.264;2022-09-02T06:31:40;8.82;;;7.53;;
6344;SDS011;3205;42.666;23.264;2022-09-02T06:34:07;10.95;;;8.25;;
6344;SDS011;3205;42.666;23.264;2022-09-02T06:36:38;10.07;;;7.93;;
6344;SDS011;3205;42.666;23.264;2022-09-02T06:39:04;12.32;;;7.82;;
6344;SDS011;3205;42.666;23.264;2022-09-02T06:41:31;9.15;;;7.18;;
6344;SDS011;3205;42.666;23.264;2022-09-02T06:43:59;7.18;;;6.40;;
6344;SDS011;3205;42.666;23.264;2022-09-02T06:46:29;8.70;;;7.30;;
6344;SDS011;3205;42.666;23.264;2022-09-02T06:48:58;7.18;;;6.40;;
6344;SDS011;3205;42.666;23.264;2022-09-02T06:51:25;13.27;;;9.43;;
6344;SDS011;3205;42.666;23.264;2022-09-02T06:53:52;11.07;;;8.77;;
6344;SDS011;3205;42.666;23.264;2022-09-02T06:56:19;15.90;;;9.15;;
6344;SDS011;3205;42.666;23.264;2022-09-02T06:58:45;12.65;;;9.50;;
6344;SDS011;3205;42.666;23.264;2022-09-02T07:01:16;12.10;;;10.57;;
6344;SDS011;3205;42.666;23.264;2022-09-02T07:03:42;13.15;;;9.48;;
6344;SDS011;3205;42.666;23.264;2022-09-02T07:06:24;11.48;;;8.40;;
6344;SDS011;3205;42.666;23.264;2022-09-02T07:08:51;13.55;;;8.68;;
6344;SDS011;3205;42.666;23.264;2022-09-02T07:11:18;9.82;;;8.55;;
6344;SDS011;3205;42.666;23.264;2022-09-02T07:13:46;9.98;;;8.27;;
6344;SDS011;3205;42.666;23.264;2022-09-02T07:16:15;9.38;;;8.15;;
6344;SDS011;3205;42.666;23.264;2022-09-02T07:18:42;9.30;;;7.97;;
6344;SDS011;3205;42.666;23.264;2022-09-02T07:21:10;13.20;;;7.95;;
6344;SDS011;3205;42.666;23.264;2022-09-02T07:23:38;8.77;;;6.72;;
6344;SDS011;3205;42.666;23.264;2022-09-02T07:26:10;12.27;;;7.75;;
6344;SDS011;3205;42.666;23.264;2022-09-02T07:28:36;11.18;;;7.82;;
6344;SDS011;3205;42.666;23.264;2022-09-02T07:31:05;7.10;;;6.40;;
6344;SDS011;3205;42.666;23.264;2022-09-02T07:33:32;10.70;;;7.05;;
6344;SDS011;3205;42.666;23.264;2022-09-02T07:36:01;8.60;;;6.97;;
6344;SDS011;3205;42.666;23.264;2022-09-02T07:38:29;6.28;;;5.82;;
6344;SDS011;3205;42.666;23.264;2022-09-02T07:40:56;10.25;;;6.60;;
6344;SDS011;3205;42.666;23.264;2022-09-02T07:43:24;7.13;;;5.57;;
6344;SDS011;3205;42.666;23.264;2022-09-02T07:45:52;8.73;;;6.00;;
6344;SDS011;3205;42.666;23.264;2022-09-02T07:48:19;7.10;;;5.78;;
6344;SDS011;3205;42.666;23.264;2022-09-02T07:50:47;10.32;;;6.07;;
6344;SDS011;3205;42.666;23.264;2022-09-02T07:53:13;6.75;;;5.63;;
6344;SDS011;3205;42.666;23.264;2022-09-02T07:55:41;8.02;;;5.70;;
6344;SDS011;3205;42.666;23.264;2022-09-02T07:58:09;7.82;;;6.25;;
6344;SDS011;3205;42.666;23.264;2022-09-02T08:00:36;11.77;;;6.90;;
6344;SDS011;3205;42.666;23.264;2022-09-02T08:03:06;7.57;;;6.90;;
6344;SDS011;3205;42.666;23.264;2022-09-02T08:05:34;8.13;;;6.80;;
6344;SDS011;3205;42.666;23.264;2022-09-02T08:08:01;8.10;;;7.05;;
6344;SDS011;3205;42.666;23.264;2022-09-02T08:10:28;13.30;;;8.23;;
6344;SDS011;3205;42.666;23.264;2022-09-02T08:12:55;6.18;;;5.68;;
6344;SDS011;3205;42.666;23.264;2022-09-02T08:15:26;7.47;;;6.40;;
6344;SDS011;3205;42.666;23.264;2022-09-02T08:17:54;7.85;;;6.68;;
6344;SDS011;3205;42.666;23.264;2022-09-02T08:20:20;12.43;;;7.22;;
6344;SDS011;3205;42.666;23.264;2022-09-02T08:22:47;10.85;;;6.82;;
6344;SDS011;3205;42.666;23.264;2022-09-02T08:25:14;13.60;;;8.10;;
6344;SDS011;3205;42.666;23.264;2022-09-02T08:27:42;11.52;;;7.60;;
6344;SDS011;3205;42.666;23.264;2022-09-02T08:30:09;7.78;;;6.78;;
6344;SDS011;3205;42.666;23.264;2022-09-02T08:32:37;7.85;;;7.15;;
6344;SDS011;3205;42.666;23.264;2022-09-02T08:35:07;9.52;;;6.63;;
6344;SDS011;3205;42.666;23.264;2022-09-02T08:37:33;11.27;;;6.57;;
6344;SDS011;3205;42.666;23.264;2022-09-02T08:40:02;9.43;;;6.88;;
6344;SDS011;3205;42.666;23.264;2022-09-02T08:42:31;9.75;;;7.10;;
6344;SDS011;3205;42.666;23.264;2022-09-02T08:44:59;7.13;;;5.95;;
6344;SDS011;3205;42.666;23.264;2022-09-02T08:47:29;7.40;;;6.53;;
6344;SDS011;3205;42.666;23.264;2022-09-02T08:49:59;10.27;;;6.85;;
6344;SDS011;3205;42.666;23.264;2022-09-02T08:52:30;7.18;;;6.15;;
6344;SDS011;3205;42.666;23.264;2022-09-02T08:54:59;7.35;;;6.45;;
6344;SDS011;3205;42.666;23.264;2022-09-02T08:57:26;9.35;;;7.53;;
6344;SDS011;3205;42.666;23.264;2022-09-02T08:59:54;7.85;;;7.05;;
6344;SDS011;3205;42.666;23.264;2022-09-02T09:02:23;9.00;;;6.78;;
6344;SDS011;3205;42.666;23.264;2022-09-02T09:04:55;10.30;;;7.30;;
6344;SDS011;3205;42.666;23.264;2022-09-02T09:07:27;10.07;;;6.90;;
6344;SDS011;3205;42.666;23.264;2022-09-02T09:10:07;8.20;;;7.30;;
6344;SDS011;3205;42.666;23.264;2022-09-02T09:12:45;9.10;;;6.57;;
6344;SDS011;3205;42.666;23.264;2022-09-02T09:15:17;8.20;;;7.10;;
6344;SDS011;3205;42.666;23.264;2022-09-02T09:17:47;7.78;;;7.03;;
6344;SDS011;3205;42.666;23.264;2022-09-02T09:20:17;9.40;;;7.80;;
6344;SDS011;3205;42.666;23.264;2022-09-02T09:22:46;8.23;;;7.43;;
6344;SDS011;3205;42.666;23.264;2022-09-02T09:25:14;8.32;;;7.45;;
6344;SDS011;3205;42.666;23.264;2022-09-02T09:27:41;8.15;;;7.35;;
6344;SDS011;3205;42.666;23.264;2022-09-02T09:30:09;9.93;;;7.78;;
6344;SDS011;3205;42.666;23.264;2022-09-02T09:32:39;9.65;;;6.88;;
6344;SDS011;3205;42.666;23.264;2022-09-02T09:35:07;9.02;;;7.22;;
6344;SDS011;3205;42.666;23.264;2022-09-02T09:37:36;8.55;;;7.68;;
6344;SDS011;3205;42.666;23.264;2022-09-02T09:40:24;10.13;;;7.65;;
6344;SDS011;3205;42.666;23.264;2022-09-02T09:42:52;10.73;;;7.72;;
6344;SDS011;3205;42.666;23.264;2022-09-02T09:45:24;9.98;;;8.48;;
6344;SDS011;3205;42.666;23.264;2022-09-02T09:48:09;9.30;;;7.22;;
6344;SDS011;3205;42.666;23.264;2022-09-02T09:50:37;10.32;;;8.05;;
6344;SDS011;3205;42.666;23.264;2022-09-02T09:53:13;8.25;;;7.40;;
6344;SDS011;3205;42.666;23.264;2022-09-02T09:55:49;9.35;;;8.23;;
6344;SDS011;3205;42.666;23.264;2022-09-02T09:58:16;8.93;;;8.02;;
6344;SDS011;3205;42.666;23.264;2022-09-02T10:00:44;9.32;;;7.55;;
6344;SDS011;3205;42.666;23.264;2022-09-02T10:03:17;9.38;;;7.85;;
6344;SDS011;3205;42.666;23.264;2022-09-02T10:05:46;13.13;;;8.18;;
6344;SDS011;3205;42.666;23.264;2022-09-02T10:08:18;12.45;;;8.65;;
6344;SDS011;3205;42.666;23.264;2022-09-02T10:10:55;10.75;;;8.50;;
6344;SDS011;3205;42.666;23.264;2022-09-02T10:13:23;13.45;;;8.15;;
6344;SDS011;3205;42.666;23.264;2022-09-02T10:15:59;11.30;;;8.52;;
6344;SDS011;3205;42.666;23.264;2022-09-02T10:18:31;9.95;;;8.57;;
6344;SDS011;3205;42.666;23.264;2022-09-02T10:21:03;13.27;;;9.48;;
6344;SDS011;3205;42.666;23.264;2022-09-02T10:23:40;11.15;;;9.35;;
6344;SDS011;3205;42.666;23.264;2022-09-02T10:26:15;10.80;;;9.48;;
6344;SDS011;3205;42.666;23.264;2022-09-02T10:29:15;10.68;;;9.57;;
6344;SDS011;3205;42.666;23.264;2022-09-02T10:31:48;10.80;;;8.80;;
6344;SDS011;3205;42.666;23.264;2022-09-02T10:34:19;13.45;;;9.00;;
6344;SDS011;3205;42.666;23.264;2022-09-02T10:36:56;13.60;;;10.00;;
6344;SDS011;3205;42.666;23.264;2022-09-02T10:39:33;16.10;;;9.68;;
6344;SDS011;3205;42.666;23.264;2022-09-02T10:42:06;14.70;;;10.52;;
6344;SDS011;3205;42.666;23.264;2022-09-02T10:44:36;12.80;;;10.13;;
6344;SDS011;3205;42.666;23.264;2022-09-02T10:47:09;13.05;;;9.98;;
6344;SDS011;3205;42.666;23.264;2022-09-02T10:49:45;11.90;;;10.25;;
6344;SDS011;3205;42.666;23.264;2022-09-02T10:52:16;17.90;;;10.38;;
6344;SDS011;3205;42.666;23.264;2022-09-02T10:54:48;14.75;;;11.40;;
6344;SDS011;3205;42.666;23.264;2022-09-02T10:57:22;16.95;;;11.90;;
6344;SDS011;3205;42.666;23.264;2022-09-02T10:59:51;14.77;;;11.15;;
6344;SDS011;3205;42.666;23.264;2022-09-02T11:02:20;16.00;;;11.82;;
6344;SDS011;3205;42.666;23.264;2022-09-02T11:04:49;13.05;;;11.68;;
6344;SDS011;3205;42.666;23.264;2022-09-02T11:07:21;18.30;;;11.82;;
6344;SDS011;3205;42.666;23.264;2022-09-02T11:09:51;14.23;;;11.43;;
6344;SDS011;3205;42.666;23.264;2022-09-02T11:12:24;16.73;;;12.93;;
6344;SDS011;3205;42.666;23.264;2022-09-02T11:14:55;20.20;;;11.82;;
6344;SDS011;3205;42.666;23.264;2022-09-02T11:17:26;15.25;;;11.95;;
6344;SDS011;3205;42.666;23.264;2022-09-02T11:19:57;19.15;;;12.85;;
6344;SDS011;3205;42.666;23.264;2022-09-02T11:22:29;17.15;;;12.52;;
6344;SDS011;3205;42.666;23.264;2022-09-02T11:24:59;13.48;;;12.10;;
6344;SDS011;3205;42.666;23.264;2022-09-02T11:27:32;13.00;;;11.23;;
6344;SDS011;3205;42.666;23.264;2022-09-02T11:30:03;14.18;;;10.95;;
6344;SDS011;3205;42.666;23.264;2022-09-02T11:32:34;15.63;;;11.18;;
6344;SDS011;3205;42.666;23.264;2022-09-02T11:35:06;13.95;;;11.15;;
6344;SDS011;3205;42.666;23.264;2022-09-02T11:37:38;15.27;;;10.88;;
6344;SDS011;3205;42.666;23.264;2022-09-02T11:40:05;14.23;;;11.05;;
6344;SDS011;3205;42.666;23.264;2022-09-02T11:42:56;12.48;;;11.18;;
6344;SDS011;3205;42.666;23.264;2022-09-02T11:45:34;12.75;;;10.82;;
6344;SDS011;3205;42.666;23.264;2022-09-02T11:48:15;15.93;;;11.23;;
6344;SDS011;3205;42.666;23.264;2022-09-02T11:50:53;15.40;;;10.80;;
6344;SDS011;3205;42.666;23.264;2022-09-02T11:53:23;17.17;;;11.15;;
6344;SDS011;3205;42.666;23.264;2022-09-02T11:55:52;18.63;;;11.38;;
6344;SDS011;3205;42.666;23.264;2022-09-02T11:58:32;13.32;;;10.85;;
6344;SDS011;3205;42.666;23.264;2022-09-02T12:01:03;13.77;;;10.95;;
6344;SDS011;3205;42.666;23.264;2022-09-02T12:03:30;12.30;;;11.10;;
6344;SDS011;3205;42.666;23.264;2022-09-02T12:06:05;15.98;;;12.45;;
6344;SDS011;3205;42.666;23.264;2022-09-02T12:11:33;13.52;;;10.82;;
6344;SDS011;3205;42.666;23.264;2022-09-02T12:14:05;14.07;;;11.65;;
6344;SDS011;3205;42.666;23.264;2022-09-02T12:16:34;17.45;;;12.40;;
6344;SDS011;3205;42.666;23.264;2022-09-02T12:24:46;13.93;;;12.38;;
6344;SDS011;3205;42.666;23.264;2022-09-02T12:30:03;15.18;;;13.02;;
6344;SDS011;3205;42.666;23.264;2022-09-02T12:35:33;20.25;;;13.55;;
6344;SDS011;3205;42.666;23.264;2022-09-02T12:38:16;16.35;;;13.07;;
6344;SDS011;3205;42.666;23.264;2022-09-02T12:40:52;21.92;;;14.82;;
6344;SDS011;3205;42.666;23.264;2022-09-02T12:43:22;14.40;;;12.32;;
6344;SDS011;3205;42.666;23.264;2022-09-02T12:45:53;14.60;;;12.13;;
6344;SDS011;3205;42.666;23.264;2022-09-02T12:48:22;19.27;;;12.85;;
6344;SDS011;3205;42.666;23.264;2022-09-02T12:50:50;14.27;;;12.77;;
6344;SDS011;3205;42.666;23.264;2022-09-02T12:53:25;14.60;;;13.20;;
6344;SDS011;3205;42.666;23.264;2022-09-02T12:55:56;18.83;;;13.55;;
6344;SDS011;3205;42.666;23.264;2022-09-02T12:58:25;16.27;;;13.13;;
6344;SDS011;3205;42.666;23.264;2022-09-02T13:01:01;16.60;;;13.63;;
6344;SDS011;3205;42.666;23.264;2022-09-02T13:03:43;15.88;;;12.70;;
6344;SDS011;3205;42.666;23.264;2022-09-02T13:06:16;15.50;;;13.07;;
6344;SDS011;3205;42.666;23.264;2022-09-02T13:11:50;15.10;;;13.38;;
6344;SDS011;3205;42.666;23.264;2022-09-02T13:17:17;21.38;;;14.38;;
6344;SDS011;3205;42.666;23.264;2022-09-02T13:19:53;15.85;;;14.07;;
6344;SDS011;3205;42.666;23.264;2022-09-02T13:22:35;22.23;;;13.88;;
6344;SDS011;3205;42.666;23.264;2022-09-02T13:28:01;20.92;;;14.88;;
6344;SDS011;3205;42.666;23.264;2022-09-02T13:30:36;56.78;;;21.52;;
6344;SDS011;3205;42.666;23.264;2022-09-02T13:33:08;81.28;;;28.13;;
6344;SDS011;3205;42.666;23.264;2022-09-02T13:35:36;41.13;;;21.58;;
6344;SDS011;3205;42.666;23.264;2022-09-02T13:38:03;40.95;;;26.20;;
6344;SDS011;3205;42.666;23.264;2022-09-02T13:40:31;53.50;;;29.92;;
6344;SDS011;3205;42.666;23.264;2022-09-02T13:42:59;42.70;;;27.90;;
6344;SDS011;3205;42.666;23.264;2022-09-02T13:45:27;43.30;;;28.48;;
6344;SDS011;3205;42.666;23.264;2022-09-02T13:47:54;46.22;;;31.13;;
6344;SDS011;3205;42.666;23.264;2022-09-02T13:50:23;48.28;;;33.03;;
6344;SDS011;3205;42.666;23.264;2022-09-02T13:52:52;60.85;;;34.03;;
6344;SDS011;3205;42.666;23.264;2022-09-02T13:55:20;59.90;;;36.50;;
6344;SDS011;3205;42.666;23.264;2022-09-02T13:57:48;77.43;;;39.17;;
6344;SDS011;3205;42.666;23.264;2022-09-02T14:00:18;78.07;;;39.65;;
6344;SDS011;3205;42.666;23.264;2022-09-02T14:02:55;78.68;;;39.45;;
6344;SDS011;3205;42.666;23.264;2022-09-02T14:05:24;77.60;;;37.80;;
6344;SDS011;3205;42.666;23.264;2022-09-02T14:07:52;62.67;;;36.10;;
6344;SDS011;3205;42.666;23.264;2022-09-02T14:10:20;61.10;;;37.83;;
6344;SDS011;3205;42.666;23.264;2022-09-02T14:12:47;73.45;;;38.78;;
6344;SDS011;3205;42.666;23.264;2022-09-02T14:15:15;61.00;;;36.88;;
6344;SDS011;3205;42.666;23.264;2022-09-02T14:17:42;54.10;;;35.20;;
6344;SDS011;3205;42.666;23.264;2022-09-02T14:20:15;42.40;;;31.65;;
6344;SDS011;3205;42.666;23.264;2022-09-02T14:22:50;50.05;;;33.63;;
6344;SDS011;3205;42.666;23.264;2022-09-02T14:25:17;62.38;;;38.70;;
6344;SDS011;3205;42.666;23.264;2022-09-02T14:27:47;74.00;;;43.40;;
6344;SDS011;3205;42.666;23.264;2022-09-02T14:30:23;67.07;;;40.67;;
6344;SDS011;3205;42.666;23.264;2022-09-02T14:35:35;40.70;;;31.25;;
6344;SDS011;3205;42.666;23.264;2022-09-02T14:38:03;48.67;;;35.80;;
6344;SDS011;3205;42.666;23.264;2022-09-02T14:40:31;41.70;;;30.75;;
6344;SDS011;3205;42.666;23.264;2022-09-02T14:42:59;44.10;;;32.72;;
6344;SDS011;3205;42.666;23.264;2022-09-02T14:45:27;39.92;;;31.23;;
6344;SDS011;3205;42.666;23.264;2022-09-02T14:47:55;49.58;;;33.83;;
6344;SDS011;3205;42.666;23.264;2022-09-02T14:50:23;50.80;;;34.78;;
6344;SDS011;3205;42.666;23.264;2022-09-02T14:52:52;56.65;;;37.60;;
6344;SDS011;3205;42.666;23.264;2022-09-02T14:58:04;60.17;;;39.42;;
6344;SDS011;3205;42.666;23.264;2022-09-02T15:00:34;58.20;;;38.85;;
6344;SDS011;3205;42.666;23.264;2022-09-02T15:03:03;54.97;;;39.33;;
6344;SDS011;3205;42.666;23.264;2022-09-02T15:05:31;50.92;;;36.47;;
6344;SDS011;3205;42.666;23.264;2022-09-02T15:07:57;40.03;;;29.45;;
6344;SDS011;3205;42.666;23.264;2022-09-02T15:10:24;42.88;;;29.73;;
6344;SDS011;3205;42.666;23.264;2022-09-02T15:12:52;37.50;;;27.60;;
6344;SDS011;3205;42.666;23.264;2022-09-02T15:15:23;38.63;;;28.60;;
6344;SDS011;3205;42.666;23.264;2022-09-02T15:17:51;38.28;;;30.27;;
6344;SDS011;3205;42.666;23.264;2022-09-02T15:20:18;39.95;;;28.50;;
6344;SDS011;3205;42.666;23.264;2022-09-02T15:22:45;41.45;;;29.10;;